Time;durP1;ratioP1;P1;durP2;ratioP2;P2;SDS_P1;SDS_P2;PMS_P1;PMS_P2;Temp;Humidity;BMP_temperature;BMP_pressure;BME280_temperature;BME280_humidity;BME280_pressure;Samples;Min_cycle;Max_cycle;Signal;HPM_P1;HPM_P2
2023/07/16 00:03:15;;;;;;;5.50;3.77;;;20.30;1.00;;;;;;8299942;28;20217;-64
2023/07/16 00:07:19;;;;;;;5.17;3.93;;;20.40;1.00;;;;;;8303331;28;20230;-64
2023/07/16 00:11:20;;;;;;;5.33;3.60;;;20.40;1.00;;;;;;8296355;28;20186;-64
2023/07/16 00:15:21;;;;;;;3.97;3.53;;;20.30;1.00;;;;;;8300728;28;20202;-63
2023/07/16 00:19:22;;;;;;;4.63;3.50;;;20.40;1.00;;;;;;8295757;28;20182;-63
2023/07/16 00:23:22;;;;;;;3.77;3.30;;;20.50;1.00;;;;;;8304178;28;20221;-63
2023/07/16 00:27:23;;;;;;;6.00;3.57;;;20.50;1.00;;;;;;8298346;28;20197;-63
2023/07/16 00:31:24;;;;;;;5.80;3.90;;;20.50;1.00;;;;;;8302076;28;20194;-63
2023/07/16 00:35:25;;;;;;;6.50;3.43;;;20.60;1.00;;;;;;8315107;28;20305;-63
2023/07/16 00:39:26;;;;;;;5.77;3.13;;;20.60;1.00;;;;;;8317525;28;20183;-63
2023/07/16 00:43:27;;;;;;;3.47;3.10;;;20.60;1.00;;;;;;8308472;28;20264;-65
2023/07/16 00:47:28;;;;;;;9.97;3.40;;;20.50;1.00;;;;;;8311468;28;20187;-64
2023/07/16 00:51:30;;;;;;;4.70;3.57;;;20.40;1.00;;;;;;8314998;28;20194;-63
2023/07/16 00:55:31;;;;;;;4.20;3.13;;;20.40;1.00;;;;;;8308160;28;20215;-63
2023/07/16 00:59:32;;;;;;;7.13;3.63;;;20.30;1.00;;;;;;8313326;28;20196;-63
2023/07/16 01:03:33;;;;;;;4.73;3.47;;;20.10;1.00;;;;;;8311996;28;20218;-63
2023/07/16 01:07:35;;;;;;;3.50;3.20;;;20.00;1.00;;;;;;8305494;28;20276;-63
2023/07/16 01:11:41;;;;;;;4.97;2.90;;;19.90;1.00;;;;;;8312951;28;20191;-63
2023/07/16 01:15:41;;;;;;;3.80;3.20;;;19.70;1.00;;;;;;8305471;28;20218;-63
2023/07/16 01:19:42;;;;;;;4.47;3.33;;;19.50;1.00;;;;;;8306312;28;20255;-64
2023/07/16 01:23:55;;;;;;;8.00;4.23;;;19.40;1.00;;;;;;8319971;28;20208;-63
2023/07/16 01:28:28;;;;;;;4.43;3.30;;;19.30;1.00;;;;;;8323297;28;20194;-65
2023/07/16 01:32:33;;;;;;;3.60;3.30;;;19.10;1.00;;;;;;8307416;28;20203;-65
2023/07/16 01:36:35;;;;;;;4.03;3.63;;;19.00;1.00;;;;;;8312209;28;20196;-63
2023/07/16 01:40:36;;;;;;;6.00;4.40;;;19.00;1.00;;;;;;8312176;28;20182;-62
2023/07/16 01:44:37;;;;;;;4.17;3.70;;;19.00;1.00;;;;;;8309010;28;20183;-63
2023/07/16 01:48:38;;;;;;;4.50;3.33;;;18.80;1.00;;;;;;8314679;28;20194;-65
2023/07/16 01:52:39;;;;;;;4.47;3.80;;;18.80;1.00;;;;;;8304883;28;20213;-63
2023/07/16 01:56:40;;;;;;;4.07;3.63;;;18.70;1.00;;;;;;8308991;28;20186;-63
2023/07/16 02:00:41;;;;;;;4.30;3.90;;;18.60;1.00;;;;;;8280771;28;20226;-63
2023/07/16 02:04:45;;;;;;;4.20;3.80;;;18.50;1.00;;;;;;8300574;28;20353;-63
2023/07/16 02:08:49;;;;;;;5.67;4.23;;;18.50;1.00;;;;;;8300014;28;20461;-62
2023/07/16 02:12:50;;;;;;;5.27;4.33;;;18.40;25.90;;;;;;8298577;28;20210;-65
2023/07/16 02:16:51;;;;;;;4.57;3.40;;;18.70;17.50;;;;;;8304289;28;20187;-64
2023/07/16 02:20:52;;;;;;;6.60;3.30;;;19.20;1.00;;;;;;8303680;28;20214;-63
2023/07/16 02:24:53;;;;;;;7.97;3.40;;;20.10;1.00;;;;;;8304410;28;20193;-63
2023/07/16 02:28:54;;;;;;;4.47;3.10;;;21.00;1.00;;;;;;8299685;28;20274;-64
2023/07/16 02:32:54;;;;;;;4.83;3.17;;;21.60;1.00;;;;;;8307361;28;20210;-63
2023/07/16 02:36:55;;;;;;;4.27;3.27;;;22.10;1.00;;;;;;8299568;28;20275;-64
2023/07/16 02:40:56;;;;;;;7.47;3.40;;;22.20;1.00;;;;;;8299869;28;20252;-63
2023/07/16 02:45:00;;;;;;;5.13;2.87;;;22.30;1.00;;;;;;8297557;28;20193;-63
2023/07/16 02:49:03;;;;;;;6.57;2.97;;;22.40;1.00;;;;;;8297636;28;20190;-63
2023/07/16 02:53:05;;;;;;;6.27;2.87;;;22.50;1.00;;;;;;8291950;28;20206;-63
2023/07/16 02:57:06;;;;;;;4.90;2.87;;;22.60;1.00;;;;;;8299643;28;20187;-64
2023/07/16 03:01:07;;;;;;;6.77;3.30;;;22.70;1.00;;;;;;8293586;28;20213;-64
2023/07/16 03:05:08;;;;;;;6.40;3.07;;;22.70;1.00;;;;;;8293028;28;20225;-65
2023/07/16 03:09:09;;;;;;;6.90;2.70;;;22.70;1.00;;;;;;8292852;28;20194;-65
2023/07/16 03:13:12;;;;;;;10.43;2.87;;;22.70;1.00;;;;;;8287513;28;20343;-64
2023/07/16 03:17:14;;;;;;;6.50;2.80;;;22.80;1.00;;;;;;8291997;28;20182;-63
2023/07/16 03:21:15;;;;;;;4.90;2.40;;;22.80;1.00;;;;;;8314497;28;20194;-65
2023/07/16 03:25:15;;;;;;;6.40;2.67;;;22.90;1.00;;;;;;8292544;28;20194;-64
2023/07/16 03:29:16;;;;;;;12.67;2.43;;;23.10;1.00;;;;;;8292476;28;20313;-63
2023/07/16 03:33:20;;;;;;;9.30;2.70;;;23.40;1.00;;;;;;8296803;28;20222;-63
2023/07/16 03:37:21;;;;;;;3.90;2.30;;;23.80;1.00;;;;;;8295302;28;20193;-64
2023/07/16 03:41:22;;;;;;;9.93;2.67;;;24.20;1.00;;;;;;8294289;28;20183;-62
2023/07/16 03:45:23;;;;;;;5.60;2.33;;;24.30;1.00;;;;;;8296521;28;20295;-63
2023/07/16 03:49:24;;;;;;;3.73;2.53;;;24.00;1.00;;;;;;8296471;28;20221;-64
2023/07/16 03:53:25;;;;;;;6.67;2.30;;;23.90;1.00;;;;;;8292110;28;20214;-64
2023/07/16 03:57:28;;;;;;;4.93;2.40;;;23.90;1.00;;;;;;8291292;28;20239;-64
2023/07/16 04:01:29;;;;;;;9.03;2.50;;;24.40;1.00;;;;;;8292391;28;20192;-62
2023/07/16 04:05:30;;;;;;;8.70;2.40;;;24.90;1.00;;;;;;8290577;28;20222;-64
2023/07/16 04:09:31;;;;;;;4.30;2.27;;;24.80;1.00;;;;;;8285832;28;20205;-65
2023/07/16 04:13:33;;;;;;;6.73;2.23;;;24.60;1.00;;;;;;8288740;28;20211;-64
2023/07/16 04:17:33;;;;;;;4.23;1.87;;;24.60;1.00;;;;;;8290133;28;20191;-63
2023/07/16 04:21:37;;;;;;;5.20;1.77;;;25.50;99.90;;;;;;8288743;28;20197;-64
2023/07/16 04:25:38;;;;;;;4.63;1.80;;;26.50;99.90;;;;;;8287382;28;20195;-65
2023/07/16 04:29:39;;;;;;;5.93;1.90;;;27.20;99.90;;;;;;8287405;28;20194;-65
2023/07/16 04:33:43;;;;;;;4.10;1.98;;;27.40;99.90;;;;;;8293920;28;20210;-65
2023/07/16 04:37:44;;;;;;;2.25;1.60;;;27.80;99.90;;;;;;8288253;28;20198;-66
2023/07/16 04:41:44;;;;;;;5.65;1.98;;;28.00;99.90;;;;;;8292172;28;20182;-66
2023/07/16 04:45:46;;;;;;;3.45;1.70;;;27.70;99.90;;;;;;8287276;28;20186;-65
2023/07/16 04:49:47;;;;;;;4.00;1.90;;;27.20;99.90;;;;;;8298363;28;20190;-63
2023/07/16 04:53:48;;;;;;;2.28;1.63;;;26.80;99.90;;;;;;8287676;28;20229;-62
2023/07/16 04:57:53;;;;;;;4.22;1.70;;;26.40;99.90;;;;;;8284538;28;20183;-65
2023/07/16 05:01:54;;;;;;;2.80;1.60;;;25.70;99.90;;;;;;8285592;28;20183;-64
2023/07/16 05:05:55;;;;;;;2.80;1.43;;;25.40;99.90;;;;;;8288173;28;20250;-64
2023/07/16 05:09:55;;;;;;;2.77;1.40;;;25.40;99.90;;;;;;8295090;28;20186;-64
2023/07/16 05:13:57;;;;;;;4.03;1.50;;;25.60;99.90;;;;;;8279395;28;20218;-65
2023/07/16 05:18:02;;;;;;;1.97;1.33;;;25.40;99.90;;;;;;8292921;28;20194;-66
2023/07/16 05:22:06;;;;;;;1.87;1.30;;;25.10;99.90;;;;;;8303659;28;20202;-65
2023/07/16 05:26:07;;;;;;;1.57;1.20;;;24.80;99.90;;;;;;8292968;28;20195;-64
2023/07/16 05:30:09;;;;;;;1.47;1.30;;;24.60;99.90;;;;;;8291229;28;20183;-68
2023/07/16 05:34:10;;;;;;;1.50;1.00;;;24.30;99.90;;;;;;8291616;28;20325;-67
2023/07/16 05:38:11;;;;;;;2.30;1.37;;;24.30;99.90;;;;;;8300583;28;20186;-66
2023/07/16 05:42:12;;;;;;;3.03;1.43;;;24.30;99.90;;;;;;8294062;28;20191;-66
2023/07/16 05:46:13;;;;;;;1.97;1.33;;;24.30;99.90;;;;;;8292637;28;20193;-64
2023/07/16 05:50:15;;;;;;;2.47;1.20;;;24.50;99.90;;;;;;8292994;28;20210;-65
2023/07/16 05:54:17;;;;;;;1.90;1.30;;;24.80;99.90;;;;;;8291326;28;20207;-66
2023/07/16 05:58:21;;;;;;;2.43;0.90;;;25.30;99.90;;;;;;8290498;28;20360;-65
2023/07/16 06:02:24;;;;;;;2.00;1.17;;;25.80;99.90;;;;;;8298635;28;20178;-67
2023/07/16 06:06:27;;;;;;;1.30;1.00;;;26.00;99.90;;;;;;8293280;28;20282;-66
2023/07/16 06:10:28;;;;;;;1.60;1.20;;;26.40;99.90;;;;;;8295212;28;20191;-67
2023/07/16 06:14:29;;;;;;;2.25;1.35;;;26.90;99.90;;;;;;8289356;28;20353;-67
2023/07/16 06:18:30;;;;;;;2.33;1.40;;;26.90;99.90;;;;;;8301268;28;20183;-64
2023/07/16 06:22:31;;;;;;;1.70;1.17;;;26.60;99.90;;;;;;8317277;28;20282;-67
2023/07/16 06:26:36;;;;;;;2.83;0.90;;;26.30;99.90;;;;;;8302686;28;20203;-68
2023/07/16 06:30:40;;;;;;;1.47;0.97;;;25.60;99.90;;;;;;8294153;28;20188;-66
2023/07/16 06:34:41;;;;;;;2.50;1.10;;;25.30;99.90;;;;;;8291696;28;20273;-65
2023/07/16 06:38:42;;;;;;;1.67;1.23;;;25.10;99.90;;;;;;8293784;28;20228;-66
2023/07/16 06:42:43;;;;;;;12.03;1.57;;;24.90;99.90;;;;;;8304559;28;20187;-65
2023/07/16 06:46:44;;;;;;;2.63;1.33;;;24.50;99.90;;;;;;8297534;28;20221;-63
2023/07/16 06:50:45;;;;;;;1.90;1.20;;;24.30;99.90;;;;;;8301856;28;20194;-65
2023/07/16 06:54:46;;;;;;;2.40;1.60;;;24.00;1.00;;;;;;8297722;28;20218;-65
2023/07/16 06:58:47;;;;;;;2.60;1.10;;;23.80;1.00;;;;;;8294321;28;20211;-64
2023/07/16 07:02:49;;;;;;;2.50;1.23;;;23.70;1.00;;;;;;8294577;28;20190;-66
2023/07/16 07:06:50;;;;;;;1.30;1.20;;;23.40;1.00;;;;;;8293983;28;20199;-65
2023/07/16 07:10:51;;;;;;;2.00;1.40;;;23.10;1.00;;;;;;8296881;28;20313;-64
2023/07/16 07:14:52;;;;;;;1.70;0.90;;;22.80;1.00;;;;;;8290402;28;20235;-63
2023/07/16 07:18:53;;;;;;;2.80;1.53;;;22.60;1.00;;;;;;8299737;28;20187;-63
2023/07/16 07:22:54;;;;;;;1.57;1.30;;;22.40;1.00;;;;;;8304777;28;20182;-64
2023/07/16 07:26:55;;;;;;;1.83;1.50;;;22.40;1.00;;;;;;8306577;28;20183;-64
2023/07/16 07:30:56;;;;;;;1.87;1.20;;;22.40;1.90;;;;;;8299541;28;20186;-64
2023/07/16 07:34:57;;;;;;;3.03;1.50;;;22.40;42.50;;;;;;8300032;28;20256;-62
2023/07/16 07:38:59;;;;;;;3.13;1.57;;;22.50;20.30;;;;;;8298502;28;20182;-62
2023/07/16 07:43:00;;;;;;;2.83;1.70;;;22.20;70.20;;;;;;8297031;28;20194;-63
2023/07/16 07:47:01;;;;;;;2.97;1.60;;;22.10;99.30;;;;;;8292568;28;20190;-64
2023/07/16 07:51:07;;;;;;;4.17;1.67;;;22.10;99.90;;;;;;8306207;28;20281;-64
2023/07/16 07:55:12;;;;;;;1.93;1.60;;;22.30;99.90;;;;;;8303128;28;20241;-63
2023/07/16 07:59:12;;;;;;;2.77;2.20;;;22.40;78.60;;;;;;8296072;28;20355;-63
2023/07/16 08:03:19;;;;;;;2.50;1.57;;;22.70;60.40;;;;;;8295766;28;20206;-64
2023/07/16 08:07:21;;;;;;;2.27;1.50;;;23.20;28.40;;;;;;8289113;28;20198;-64
2023/07/16 08:11:22;;;;;;;1.43;1.33;;;23.70;1.00;;;;;;8316260;28;20217;-63
2023/07/16 08:15:23;;;;;;;4.60;1.67;;;24.20;1.00;;;;;;8298962;28;20222;-64
2023/07/16 08:19:24;;;;;;;2.13;1.27;;;24.60;1.00;;;;;;8304303;28;20220;-65
2023/07/16 08:23:25;;;;;;;2.47;1.93;;;25.10;1.00;;;;;;8297886;28;20258;-64
2023/07/16 08:27:26;;;;;;;2.10;1.70;;;25.60;1.00;;;;;;8299892;28;20237;-63
2023/07/16 08:31:27;;;;;;;2.00;1.43;;;25.60;1.00;;;;;;8295144;28;20182;-64
2023/07/16 08:35:28;;;;;;;1.90;1.50;;;25.70;1.00;;;;;;8299936;28;20218;-63
2023/07/16 08:39:29;;;;;;;1.63;1.47;;;25.80;1.00;;;;;;8294880;28;20182;-63
2023/07/16 08:43:30;;;;;;;2.50;1.60;;;25.70;1.00;;;;;;8294526;28;20345;-63
2023/07/16 08:47:33;;;;;;;3.63;1.40;;;25.70;1.00;;;;;;8301937;28;20190;-66
2023/07/16 08:51:41;;;;;;;3.03;1.47;;;25.90;1.00;;;;;;8299890;28;20193;-66
2023/07/16 08:55:44;;;;;;;2.73;1.70;;;25.70;1.00;;;;;;8313977;28;20274;-66
2023/07/16 08:59:48;;;;;;;2.25;1.60;;;25.80;1.00;;;;;;8306306;28;20257;-63
2023/07/16 09:03:50;;;;;;;1.30;1.20;;;26.20;1.00;;;;;;8308068;28;20225;-65
2023/07/16 09:07:50;;;;;;;1.92;1.40;;;26.40;1.00;;;;;;8305965;28;20214;-65
2023/07/16 09:11:52;;;;;;;1.20;1.10;;;26.30;1.00;;;;;;8307369;28;20189;-64
2023/07/16 09:15:58;;;;;;;3.80;1.45;;;26.30;1.00;;;;;;8302008;28;20246;-66
2023/07/16 09:20:02;;;;;;;2.50;1.15;;;26.50;1.00;;;;;;8305621;28;20182;-63
2023/07/16 09:24:08;;;;;;;1.88;1.30;;;26.00;1.00;;;;;;8311602;28;20187;-64
2023/07/16 09:28:09;;;;;;;1.30;1.20;;;26.00;1.00;;;;;;8308435;28;20256;-64
2023/07/16 09:32:10;;;;;;;1.30;1.20;;;26.00;1.00;;;;;;8309206;28;20186;-63
2023/07/16 09:36:11;;;;;;;1.67;1.30;;;26.00;1.00;;;;;;8309118;28;20207;-71
2023/07/16 09:40:12;;;;;;;4.33;1.23;;;25.70;1.00;;;;;;8309021;28;20186;-64
2023/07/16 09:44:14;;;;;;;2.30;1.57;;;25.50;1.00;;;;;;8302535;28;20218;-63
2023/07/16 09:48:15;;;;;;;1.97;1.40;;;25.80;1.00;;;;;;8309370;28;20191;-65
2023/07/16 09:52:16;;;;;;;3.60;1.83;;;26.20;1.00;;;;;;8307740;28;20178;-65
2023/07/16 09:56:21;;;;;;;1.20;1.10;;;26.30;1.00;;;;;;8301597;28;20210;-63
2023/07/16 10:00:24;;;;;;;3.15;1.38;;;26.70;1.00;;;;;;8304177;28;20182;-64
2023/07/16 10:04:41;;;;;;;2.33;1.73;;;27.00;1.00;;;;;;8305584;28;20222;-64
2023/07/16 10:08:50;;;;;;;2.72;1.10;;;27.00;1.00;;;;;;8304179;28;20201;-65
2023/07/16 10:13:01;;;;;;;1.75;1.40;;;27.40;1.00;;;;;;8304434;28;20191;-70
2023/07/16 10:17:05;;;;;;;2.13;1.33;;;27.60;1.00;;;;;;8304724;28;20229;-67
2023/07/16 10:21:08;;;;;;;2.50;1.65;;;27.20;99.90;;;;;;8323181;28;20241;-67
2023/07/16 10:25:18;;;;;;;1.75;1.20;;;27.20;99.90;;;;;;8303499;28;20186;-67
2023/07/16 10:29:19;;;;;;;1.27;1.17;;;27.30;99.90;;;;;;8301372;28;20187;-65
2023/07/16 10:33:20;;;;;;;1.55;1.10;;;27.40;99.90;;;;;;8303150;28;20210;-64
2023/07/16 10:37:21;;;;;;;2.60;1.30;;;27.20;99.90;;;;;;8307928;28;20194;-63
2023/07/16 10:41:22;;;;;;;1.20;1.08;;;27.30;99.90;;;;;;8310520;28;20182;-65
2023/07/16 10:45:23;;;;;;;2.03;1.25;;;27.70;99.90;;;;;;8302537;28;20239;-66
2023/07/16 10:49:34;;;;;;;1.63;1.27;;;28.20;99.90;;;;;;8309072;28;20182;-63
2023/07/16 10:53:41;;;;;;;1.73;1.23;;;28.50;99.90;;;;;;8300608;28;20210;-65
2023/07/16 10:57:52;;;;;;;2.60;1.40;;;28.70;99.90;;;;;;8306523;28;20214;-63
2023/07/16 11:01:53;;;;;;;1.55;1.45;;;28.60;99.90;;;;;;8303197;28;20183;-65
2023/07/16 11:05:54;;;;;;;2.47;1.02;;;28.40;99.90;;;;;;8305438;28;20319;-64
2023/07/16 11:09:55;;;;;;;1.90;1.33;;;28.60;99.90;;;;;;8306498;28;20232;-65
2023/07/16 11:13:56;;;;;;;1.00;0.90;;;28.90;99.90;;;;;;8298177;28;20211;-64
2023/07/16 11:17:57;;;;;;;1.92;1.00;;;29.20;99.90;;;;;;8304106;28;20189;-63
2023/07/16 11:22:00;;;;;;;3.50;1.27;;;29.50;99.90;;;;;;8307077;28;20213;-64
2023/07/16 11:26:03;;;;;;;1.52;1.10;;;29.50;99.90;;;;;;8301309;28;20272;-65
2023/07/16 11:30:04;;;;;;;1.45;1.25;;;29.40;99.90;;;;;;8295079;28;20190;-65
2023/07/16 11:34:07;;;;;;;3.88;1.27;;;29.40;99.90;;;;;;8298865;28;20211;-66
2023/07/16 11:38:08;;;;;;;1.73;1.10;;;29.40;99.90;;;;;;8299692;28;20194;-67
2023/07/16 11:42:09;;;;;;;2.17;1.35;;;29.60;99.90;;;;;;8309939;28;20186;-66
2023/07/16 11:46:16;;;;;;;2.22;1.52;;;29.70;99.90;;;;;;8300964;28;20269;-63
2023/07/16 11:50:18;;;;;;;1.92;1.40;;;29.50;99.90;;;;;;8304348;28;20186;-64
2023/07/16 11:54:18;;;;;;;1.80;1.45;;;29.20;99.90;;;;;;8292205;28;20210;-64
2023/07/16 11:58:19;;;;;;;5.03;1.40;;;28.70;99.90;;;;;;8300419;28;20181;-66
2023/07/16 12:02:21;;;;;;;2.40;1.60;;;28.50;99.90;;;;;;8300881;28;20182;-63
2023/07/16 12:06:23;;;;;;;2.55;1.75;;;28.50;99.90;;;;;;8301911;28;20284;-64
2023/07/16 12:10:23;;;;;;;2.75;1.70;;;28.40;99.90;;;;;;8279812;28;20217;-65
2023/07/16 12:14:24;;;;;;;2.67;2.47;;;28.50;99.90;;;;;;8300315;28;20324;-65
2023/07/16 12:18:26;;;;;;;3.88;2.10;;;28.70;99.90;;;;;;8302255;28;20240;-65
2023/07/16 12:22:27;;;;;;;3.65;1.80;;;28.90;99.90;;;;;;8303660;28;20199;-66
2023/07/16 12:26:28;;;;;;;3.03;2.15;;;29.40;99.90;;;;;;8298198;28;20210;-64
2023/07/16 12:30:29;;;;;;;2.42;1.65;;;29.70;99.90;;;;;;8298921;28;20192;-66
2023/07/16 12:34:30;;;;;;;3.85;2.47;;;30.00;99.90;;;;;;8301332;28;20202;-65
2023/07/16 12:38:31;;;;;;;2.13;2.00;;;30.20;99.90;;;;;;8307674;28;20189;-65
2023/07/16 12:42:32;;;;;;;3.08;2.10;;;30.10;99.90;;;;;;8305372;28;20186;-65
2023/07/16 12:46:33;;;;;;;3.30;2.20;;;30.00;99.90;;;;;;8302080;28;20258;-64
2023/07/16 12:50:34;;;;;;;2.28;2.00;;;29.90;99.90;;;;;;8303443;28;20210;-65
2023/07/16 12:54:35;;;;;;;3.97;2.33;;;29.70;99.90;;;;;;8303370;28;20206;-66
2023/07/16 12:58:36;;;;;;;2.45;2.10;;;29.80;99.90;;;;;;8301577;28;20281;-66
2023/07/16 13:02:40;;;;;;;2.17;1.90;;;29.70;99.90;;;;;;8296641;28;20183;-64
2023/07/16 13:06:42;;;;;;;2.22;2.00;;;29.90;99.90;;;;;;8301330;28;20202;-67
2023/07/16 13:10:43;;;;;;;2.63;2.10;;;30.10;99.90;;;;;;8296554;28;20282;-67
2023/07/16 13:14:43;;;;;;;2.72;2.20;;;30.30;99.90;;;;;;8298705;28;20210;-66
2023/07/16 13:18:45;;;;;;;2.13;1.95;;;30.20;99.90;;;;;;8305244;28;20194;-65
2023/07/16 13:22:45;;;;;;;1.85;1.75;;;30.10;99.90;;;;;;8303554;28;20193;-67
2023/07/16 13:26:47;;;;;;;2.95;1.80;;;30.20;99.90;;;;;;8301669;28;20182;-66
2023/07/16 13:30:48;;;;;;;2.55;2.17;;;30.40;99.90;;;;;;8298559;28;20244;-65
2023/07/16 13:34:49;;;;;;;3.25;2.13;;;30.60;99.90;;;;;;8302921;28;20210;-66
2023/07/16 13:38:50;;;;;;;2.80;1.88;;;30.80;99.90;;;;;;8297949;28;20206;-66
2023/07/16 13:42:53;;;;;;;2.33;2.05;;;31.00;99.90;;;;;;8305428;28;20198;-67
2023/07/16 13:46:54;;;;;;;2.15;1.95;;;31.10;99.90;;;;;;8303379;28;20187;-65
2023/07/16 13:50:54;;;;;;;2.50;2.30;;;31.00;99.90;;;;;;8307525;28;20216;-66
2023/07/16 13:54:55;;;;;;;2.30;2.10;;;30.60;99.90;;;;;;8307016;28;20195;-67
2023/07/16 13:58:57;;;;;;;2.05;1.95;;;30.70;99.90;;;;;;8303242;28;20194;-67
2023/07/16 14:02:57;;;;;;;1.77;1.67;;;30.90;99.90;;;;;;8307922;28;20210;-67
2023/07/16 14:06:59;;;;;;;2.55;2.22;;;31.30;99.90;;;;;;8299277;28;20205;-66
2023/07/16 14:11:00;;;;;;;2.88;2.30;;;31.70;99.90;;;;;;8310372;28;20187;-66
2023/07/16 14:15:01;;;;;;;2.80;2.22;;;31.60;99.90;;;;;;8305829;28;20222;-65
2023/07/16 14:19:02;;;;;;;2.78;2.47;;;31.10;99.90;;;;;;8308030;28;20189;-66
2023/07/16 14:23:03;;;;;;;3.17;2.50;;;30.50;99.90;;;;;;8306184;28;20251;-66
2023/07/16 14:27:06;;;;;;;3.85;2.20;;;30.40;99.90;;;;;;8304160;28;20206;-64
2023/07/16 14:31:07;;;;;;;3.30;2.28;;;30.40;99.90;;;;;;8305379;28;20194;-65
2023/07/16 14:35:08;;;;;;;2.60;2.40;;;30.70;99.90;;;;;;8306268;28;20333;-65
2023/07/16 14:39:09;;;;;;;2.47;2.13;;;30.30;99.90;;;;;;8304974;28;20183;-66
2023/07/16 14:43:10;;;;;;;2.65;2.40;;;29.90;99.90;;;;;;8303869;28;20277;-66
2023/07/16 14:47:11;;;;;;;4.60;2.55;;;29.80;99.90;;;;;;8302419;28;20183;-65
2023/07/16 14:51:12;;;;;;;5.03;2.35;;;29.80;99.90;;;;;;8305194;28;20193;-67
2023/07/16 14:55:15;;;;;;;2.75;2.53;;;30.20;99.90;;;;;;8299152;28;20249;-66
2023/07/16 14:59:15;;;;;;;2.83;2.60;;;30.50;99.90;;;;;;8305916;28;20420;-66
2023/07/16 15:03:16;;;;;;;4.85;2.30;;;30.50;99.90;;;;;;8301369;28;20199;-65
2023/07/16 15:07:17;;;;;;;2.80;2.60;;;30.60;99.90;;;;;;8303219;28;20202;-64
2023/07/16 15:11:18;;;;;;;3.03;2.47;;;30.70;99.90;;;;;;8301954;28;20186;-64
2023/07/16 15:15:19;;;;;;;2.60;2.40;;;30.60;99.90;;;;;;8305023;28;20315;-64
2023/07/16 15:19:20;;;;;;;2.75;2.25;;;30.40;99.90;;;;;;8305713;28;20189;-63
2023/07/16 15:23:21;;;;;;;3.00;2.60;;;30.30;99.90;;;;;;8301176;28;20284;-65
2023/07/16 15:27:22;;;;;;;2.83;2.60;;;30.00;99.90;;;;;;8301558;28;20191;-65
2023/07/16 15:31:27;;;;;;;2.88;2.10;;;30.00;99.90;;;;;;8305011;28;20221;-65
2023/07/16 15:35:31;;;;;;;2.38;2.17;;;29.90;99.90;;;;;;8305747;28;20217;-65
2023/07/16 15:39:32;;;;;;;2.33;2.13;;;29.70;99.90;;;;;;8299250;28;20189;-63
2023/07/16 15:43:33;;;;;;;2.67;2.30;;;29.50;99.90;;;;;;8319856;28;20186;-66
2023/07/16 15:47:34;;;;;;;4.05;2.30;;;29.50;99.90;;;;;;8305854;28;20186;-66
2023/07/16 15:51:40;;;;;;;2.63;2.40;;;29.30;99.90;;;;;;8304368;28;20274;-64
2023/07/16 15:55:41;;;;;;;2.60;2.22;;;29.20;99.90;;;;;;8304611;28;20206;-64
2023/07/16 15:59:42;;;;;;;3.42;2.28;;;29.00;99.90;;;;;;8303916;28;20183;-65
2023/07/16 16:03:43;;;;;;;2.88;1.88;;;29.30;99.90;;;;;;8304866;28;20221;-66
2023/07/16 16:08:14;;;;;;;2.28;1.88;;;29.60;99.90;;;;;;8297325;28;20268;-66
2023/07/16 16:12:21;;;;;;;4.15;2.35;;;29.70;99.90;;;;;;8285681;28;20193;-64
2023/07/16 16:16:24;;;;;;;2.30;2.10;;;29.60;99.90;;;;;;8283176;28;20210;-67
2023/07/16 16:20:26;;;;;;;2.08;1.85;;;29.60;99.90;;;;;;8300547;28;20258;-64
2023/07/16 16:24:27;;;;;;;2.03;1.92;;;29.30;99.90;;;;;;8301189;28;20227;-64
2023/07/16 16:28:28;;;;;;;2.50;2.30;;;29.00;99.90;;;;;;8303515;28;20194;-64
2023/07/16 16:32:29;;;;;;;2.78;1.92;;;28.90;99.90;;;;;;8305546;28;20213;-64
2023/07/16 16:36:33;;;;;;;2.38;2.17;;;28.90;99.90;;;;;;8297537;28;20218;-65
2023/07/16 16:40:35;;;;;;;3.05;2.10;;;29.10;99.90;;;;;;8305441;28;20213;-64
2023/07/16 16:44:35;;;;;;;2.30;2.10;;;29.30;99.90;;;;;;8299049;28;20194;-66
2023/07/16 16:48:38;;;;;;;4.22;2.20;;;29.40;99.90;;;;;;8311181;28;20234;-65
2023/07/16 16:52:38;;;;;;;2.78;2.28;;;29.30;99.90;;;;;;8304968;28;20187;-63
2023/07/16 16:56:39;;;;;;;2.53;2.10;;;29.00;99.90;;;;;;8308897;28;20249;-66
2023/07/16 17:00:40;;;;;;;2.10;1.85;;;28.80;99.90;;;;;;8296531;28;20273;-66
2023/07/16 17:04:48;;;;;;;2.65;2.03;;;28.60;99.90;;;;;;8296931;28;20227;-65
2023/07/16 17:08:49;;;;;;;2.25;2.00;;;28.60;99.90;;;;;;8305864;28;20221;-64
2023/07/16 17:13:00;;;;;;;3.10;2.28;;;28.80;99.90;;;;;;8308475;28;20196;-66
2023/07/16 17:17:01;;;;;;;3.33;2.50;;;28.80;99.90;;;;;;8312534;28;20309;-63
2023/07/16 17:21:03;;;;;;;3.08;2.17;;;28.70;99.90;;;;;;8314765;28;20191;-63
2023/07/16 17:25:07;;;;;;;3.13;2.10;;;28.60;99.90;;;;;;8313147;28;20195;-64
2023/07/16 17:29:08;;;;;;;2.85;1.98;;;29.20;99.90;;;;;;8302181;28;20177;-65
2023/07/16 17:33:09;;;;;;;3.47;2.38;;;29.90;99.90;;;;;;8312805;28;20193;-64
2023/07/16 17:37:10;;;;;;;2.25;1.98;;;30.70;99.90;;;;;;8308656;28;20206;-65
2023/07/16 17:41:11;;;;;;;3.25;2.05;;;31.20;99.90;;;;;;8303993;28;20187;-66
2023/07/16 17:45:13;;;;;;;2.03;1.83;;;31.70;99.90;;;;;;8306616;28;20187;-64
2023/07/16 17:49:14;;;;;;;2.80;1.90;;;32.10;99.90;;;;;;8309818;28;20198;-66
2023/07/16 17:53:15;;;;;;;2.17;1.40;;;32.40;99.90;;;;;;8307895;28;20190;-65
2023/07/16 17:57:19;;;;;;;2.53;1.85;;;32.70;99.90;;;;;;8310221;28;20281;-66
2023/07/16 18:01:21;;;;;;;1.90;1.70;;;32.80;99.90;;;;;;8307123;28;20175;-65
2023/07/16 18:05:22;;;;;;;2.20;1.67;;;32.80;99.90;;;;;;8308813;28;20222;-67
2023/07/16 18:09:23;;;;;;;2.20;1.63;;;32.70;99.90;;;;;;8301962;28;20183;-65
2023/07/16 18:13:24;;;;;;;3.13;1.65;;;32.70;99.90;;;;;;8309315;28;20244;-66
2023/07/16 18:17:26;;;;;;;2.22;1.60;;;32.50;99.90;;;;;;8308637;28;20187;-66
2023/07/16 18:21:29;;;;;;;2.08;1.65;;;32.40;99.90;;;;;;8308668;28;20198;-66
2023/07/16 18:25:31;;;;;;;2.03;1.50;;;32.00;99.90;;;;;;8305616;28;20194;-65
2023/07/16 18:29:31;;;;;;;3.15;1.70;;;31.70;99.90;;;;;;8302023;28;20210;-65
2023/07/16 18:33:32;;;;;;;2.95;1.80;;;31.40;99.90;;;;;;8307666;28;20195;-65
2023/07/16 18:37:33;;;;;;;2.05;1.85;;;30.70;99.90;;;;;;8311268;28;20185;-65
2023/07/16 18:41:34;;;;;;;2.20;1.70;;;29.60;99.90;;;;;;8327586;28;20193;-65
2023/07/16 18:45:36;;;;;;;2.38;1.70;;;28.60;99.90;;;;;;8307081;28;20206;-65
2023/07/16 18:49:38;;;;;;;2.42;1.83;;;27.90;99.90;;;;;;8306377;28;20195;-64
2023/07/16 18:53:38;;;;;;;1.85;1.70;;;27.50;99.90;;;;;;8304776;28;20306;-64
2023/07/16 18:57:42;;;;;;;3.33;1.90;;;27.00;99.90;;;;;;8305796;28;20191;-64
2023/07/16 19:01:43;;;;;;;2.80;1.70;;;26.50;99.90;;;;;;8308642;28;20216;-64
2023/07/16 19:05:44;;;;;;;2.28;1.88;;;26.00;99.90;;;;;;8306584;28;20210;-63
2023/07/16 19:09:45;;;;;;;2.93;1.60;;;25.60;99.90;;;;;;8305477;28;20195;-64
2023/07/16 19:13:49;;;;;;;2.27;1.70;;;25.30;99.90;;;;;;8304132;28;20202;-65
2023/07/16 19:17:51;;;;;;;2.20;1.80;;;24.90;99.90;;;;;;8311754;28;20186;-65
2023/07/16 19:21:55;;;;;;;2.10;1.90;;;24.60;99.90;;;;;;8307479;28;20345;-64
2023/07/16 19:25:57;;;;;;;3.20;1.90;;;24.30;99.90;;;;;;8310928;28;20186;-64
2023/07/16 19:30:01;;;;;;;3.77;2.23;;;24.00;99.90;;;;;;8305758;28;20270;-64
2023/07/16 19:34:03;;;;;;;2.07;1.87;;;23.70;99.90;;;;;;8309440;28;20202;-65
2023/07/16 19:38:04;;;;;;;2.50;2.20;;;23.50;99.90;;;;;;8307828;28;20194;-64
2023/07/16 19:42:06;;;;;;;3.43;2.30;;;23.30;99.90;;;;;;8308146;28;20261;-63
2023/07/16 19:46:07;;;;;;;1.90;1.77;;;23.00;99.90;;;;;;8306587;28;20248;-63
2023/07/16 19:50:16;;;;;;;2.20;1.80;;;22.80;99.90;;;;;;8295918;28;20191;-64
2023/07/16 19:54:17;;;;;;;2.00;1.80;;;22.60;99.90;;;;;;8294886;28;20293;-64
2023/07/16 19:58:18;;;;;;;1.87;1.67;;;22.30;1.00;;;;;;8294760;28;20232;-64
2023/07/16 20:02:20;;;;;;;2.00;1.80;;;22.20;1.00;;;;;;8322723;28;20183;-64
2023/07/16 20:06:25;;;;;;;2.33;2.13;;;22.00;1.00;;;;;;8305390;28;20242;-62
2023/07/16 20:10:27;;;;;;;2.10;1.90;;;21.90;1.00;;;;;;8306043;28;20198;-63
2023/07/16 20:14:28;;;;;;;2.37;2.00;;;21.80;1.00;;;;;;8319217;28;20260;-63
2023/07/16 20:18:29;;;;;;;2.30;2.07;;;21.60;1.00;;;;;;8308038;28;20217;-63
2023/07/16 20:22:33;;;;;;;1.93;1.83;;;21.50;1.00;;;;;;8299233;28;20190;-63
2023/07/16 20:26:36;;;;;;;2.03;1.83;;;21.30;1.00;;;;;;8294580;28;20186;-63
2023/07/16 20:30:41;;;;;;;3.37;2.27;;;21.20;1.00;;;;;;8307661;28;20179;-64
2023/07/16 20:34:42;;;;;;;2.13;1.93;;;21.10;1.00;;;;;;8308957;28;20214;-63
2023/07/16 20:38:43;;;;;;;2.30;2.10;;;21.00;1.00;;;;;;8303265;28;20183;-64
2023/07/16 20:42:46;;;;;;;2.43;2.17;;;20.90;1.00;;;;;;8303976;28;20225;-63
2023/07/16 20:46:47;;;;;;;4.87;2.97;;;20.80;1.00;;;;;;8300939;28;20285;-63
2023/07/16 20:50:48;;;;;;;2.93;2.70;;;20.70;1.00;;;;;;8324581;28;20196;-63
2023/07/16 20:54:52;;;;;;;2.97;2.50;;;20.70;1.00;;;;;;8309149;28;20198;-63
2023/07/16 20:58:53;;;;;;;2.80;2.57;;;20.60;1.00;;;;;;8310819;28;20186;-64
2023/07/16 21:02:57;;;;;;;2.27;2.07;;;20.60;1.00;;;;;;8308048;28;20206;-62
2023/07/16 21:06:58;;;;;;;3.00;2.50;;;20.50;1.00;;;;;;8308447;28;20218;-63